createdAt,value
2024-05-09T00:01:07.351Z,101837.23
2024-05-09T00:03:43.399Z,101833.73
2024-05-09T00:06:11.931Z,101831.80
2024-05-09T00:08:40.212Z,101830.93
2024-05-09T00:11:08.575Z,101827.62
2024-05-09T00:13:36.910Z,101819.58
2024-05-09T00:16:06.650Z,101816.45
2024-05-09T00:18:35.104Z,101817.65
2024-05-09T00:21:05.979Z,101824.98
2024-05-09T00:23:34.170Z,101825.34
2024-05-09T00:26:02.720Z,101822.20
2024-05-09T00:28:30.966Z,101823.41
2024-05-09T00:30:59.344Z,101821.15
2024-05-09T00:33:27.925Z,101822.89
2024-05-09T00:35:56.376Z,101820.80
2024-05-09T00:38:24.738Z,101823.95
2024-05-09T00:40:53.098Z,101822.73
2024-05-09T00:43:21.398Z,101825.69
2024-05-09T00:45:49.723Z,101822.55
2024-05-09T00:48:20.741Z,101820.27
2024-05-09T00:50:50.990Z,101826.40
2024-05-09T00:53:19.647Z,101821.85
2024-05-09T00:55:48.681Z,101817.13
2024-05-09T00:58:22.721Z,101818.53
2024-05-09T01:00:51.262Z,101813.81
2024-05-09T01:03:20.379Z,101811.02
2024-05-09T01:05:48.999Z,101812.40
2024-05-09T01:08:18.428Z,101809.80
2024-05-09T01:10:48.547Z,101809.61
2024-05-09T01:13:17.309Z,101806.83
2024-05-09T01:15:48.101Z,101807.18
2024-05-09T01:18:16.672Z,101806.11
2024-05-09T01:20:45.665Z,101804.38
2024-05-09T01:23:16.124Z,101807.34
2024-05-09T01:25:46.552Z,101807.33
2024-05-09T01:28:16.199Z,101807.14
2024-05-09T01:30:44.526Z,101808.35
2024-05-09T01:33:13.506Z,101810.80
2024-05-09T01:35:43.069Z,101810.62
2024-05-09T01:38:17.351Z,101810.95
2024-05-09T01:40:47.293Z,101809.55
2024-05-09T01:43:16.137Z,101804.48
2024-05-09T01:45:44.681Z,101806.06
2024-05-09T01:48:13.094Z,101805.20
2024-05-09T01:50:43.124Z,101806.23
2024-05-09T01:53:15.073Z,101807.46
2024-05-09T01:55:44.496Z,101806.75
2024-05-09T01:58:13.383Z,101809.20
2024-05-09T02:00:43.226Z,101809.36
2024-05-09T02:03:16.885Z,101809.21
2024-05-09T02:05:51.730Z,101808.16
2024-05-09T02:08:22.058Z,101811.48
2024-05-09T02:10:51.017Z,101807.63
2024-05-09T02:13:19.751Z,101805.36
2024-05-09T02:15:52.243Z,101806.93
2024-05-09T02:18:20.909Z,101805.71
2024-05-09T02:20:49.508Z,101808.67
2024-05-09T02:23:18.303Z,101806.23
2024-05-09T02:25:46.721Z,101808.85
2024-05-09T02:28:15.022Z,101810.61
2024-05-09T02:30:43.377Z,101814.25
2024-05-09T02:33:13.513Z,101818.61
2024-05-09T02:35:43.962Z,101819.14
2024-05-09T02:38:13.724Z,101817.75
2024-05-09T02:40:42.015Z,101818.79
2024-05-09T02:43:12.972Z,101822.59
2024-05-09T02:45:41.896Z,101823.63
2024-05-09T02:48:12.775Z,101821.35
2024-05-09T02:50:44.184Z,101821.35
2024-05-09T02:53:13.519Z,101820.46
2024-05-09T02:55:43.552Z,101823.25
2024-05-09T02:58:12.390Z,101823.79
2024-05-09T03:00:42.531Z,101824.13
2024-05-09T03:03:14.460Z,101828.14
2024-05-09T03:05:46.341Z,101826.41
2024-05-09T03:08:15.202Z,101832.52
2024-05-09T03:10:43.842Z,101830.59
2024-05-09T03:13:15.455Z,101830.06
2024-05-09T03:15:45.664Z,101831.80
2024-05-09T03:18:15.018Z,101831.63
2024-05-09T03:20:46.752Z,101833.20
2024-05-09T03:23:15.140Z,101834.05
2024-05-09T03:25:43.506Z,101831.10
2024-05-09T03:28:12.263Z,101835.99
2024-05-09T03:30:42.881Z,101839.13
2024-05-09T03:33:22.903Z,101838.27
2024-05-09T03:35:51.531Z,101836.02
2024-05-09T03:38:19.865Z,101838.82
2024-05-09T03:40:49.581Z,101840.05
2024-05-09T03:43:19.807Z,101836.23
2024-05-09T03:45:50.539Z,101835.89
2024-05-09T03:48:18.974Z,101839.58
2024-05-09T03:50:50.485Z,101843.59
2024-05-09T03:53:18.869Z,101847.98
2024-05-09T03:55:48.633Z,101851.48
2024-05-09T03:58:17.080Z,101853.95
2024-05-09T04:00:45.317Z,101856.05
2024-05-09T04:03:15.038Z,101854.69
2024-05-09T04:05:44.559Z,101856.09
2024-05-09T04:08:15.657Z,101858.19
2024-05-09T04:10:46.054Z,101857.67
2024-05-09T04:13:14.627Z,101859.79
2024-05-09T04:15:42.896Z,101861.88
2024-05-09T04:18:12.774Z,101863.48
2024-05-09T04:20:41.840Z,101860.54
2024-05-09T04:23:14.934Z,101861.07
2024-05-09T04:25:45.477Z,101868.94
2024-05-09T04:28:14.688Z,101868.59
2024-05-09T04:30:43.799Z,101866.84
2024-05-09T04:33:15.045Z,101864.58
2024-05-09T04:35:44.454Z,101864.76
2024-05-09T04:38:14.672Z,101860.20
2024-05-09T04:40:44.320Z,101860.55
2024-05-09T04:43:18.944Z,101863.00
2024-05-09T04:45:47.475Z,101864.92
2024-05-09T04:48:16.617Z,101867.19
2024-05-09T04:50:45.232Z,101871.21
2024-05-09T04:53:17.042Z,101872.08
2024-05-09T04:55:45.736Z,101874.16
2024-05-09T04:58:14.215Z,101874.17
2024-05-09T05:00:44.138Z,101873.47
2024-05-09T05:03:14.986Z,101873.13
2024-05-09T05:05:46.908Z,101872.60
2024-05-09T05:08:17.440Z,101875.23
2024-05-09T05:10:48.572Z,101878.91
2024-05-09T05:13:22.448Z,101881.89
2024-05-09T05:15:55.743Z,101883.26
2024-05-09T05:18:28.603Z,101889.73
2024-05-09T05:20:58.589Z,101889.02
2024-05-09T05:23:27.164Z,101893.21
2024-05-09T05:25:55.845Z,101891.80
2024-05-09T05:28:24.650Z,101891.63
2024-05-09T05:30:52.862Z,101887.94
2024-05-09T05:33:22.559Z,101884.06
2024-05-09T05:35:51.551Z,101883.32
2024-05-09T05:38:23.751Z,101883.66
2024-05-09T05:40:54.877Z,101883.14
2024-05-09T05:43:23.278Z,101881.88
2024-05-09T05:45:51.518Z,101883.40
2024-05-09T05:48:20.005Z,101885.11
2024-05-09T05:50:48.514Z,101881.08
2024-05-09T05:53:16.848Z,101883.30
2024-05-09T05:55:45.256Z,101887.08
2024-05-09T05:58:14.784Z,101890.86
2024-05-09T06:00:43.506Z,101892.91
2024-05-09T06:03:14.363Z,101887.59
2024-05-09T06:05:45.749Z,101889.79
2024-05-09T06:08:14.605Z,101893.05
2024-05-09T06:10:43.118Z,101892.13
2024-05-09T06:13:13.448Z,101891.20
2024-05-09T06:15:43.718Z,101886.40
2024-05-09T06:18:15.105Z,101881.11
2024-05-09T06:20:44.329Z,101884.00
2024-05-09T06:23:14.666Z,101884.33
2024-05-09T06:25:43.808Z,101888.86
2024-05-09T06:28:12.249Z,101887.91
2024-05-09T06:30:42.505Z,101885.21
2024-05-09T06:33:14.156Z,101881.32
2024-05-09T06:35:46.236Z,101885.42
2024-05-09T06:38:14.796Z,101885.09
2024-05-09T06:40:44.269Z,101886.73
2024-05-09T06:43:16.343Z,101890.11
2024-05-09T06:45:48.413Z,101887.34
2024-05-09T06:48:19.476Z,101886.11
2024-05-09T06:50:48.591Z,101886.31
2024-05-09T06:53:20.425Z,101885.45
2024-05-09T06:55:49.286Z,101893.44
2024-05-09T06:58:17.874Z,101891.61
2024-05-09T07:00:46.359Z,101891.37
2024-05-09T07:03:18.209Z,101893.65
2024-05-09T07:05:49.278Z,101890.99
2024-05-09T07:08:18.702Z,101891.35
2024-05-09T07:10:47.413Z,101892.53
2024-05-09T07:13:16.206Z,101890.91
2024-05-09T07:15:44.559Z,101892.74
2024-05-09T07:18:19.923Z,101894.99
2024-05-09T07:20:50.289Z,101895.04
2024-05-09T07:23:19.217Z,101894.20
2024-05-09T07:25:47.999Z,101890.89
2024-05-09T07:28:18.759Z,101891.21
2024-05-09T07:30:47.256Z,101894.20
2024-05-09T07:33:17.607Z,101895.10
2024-05-09T07:35:46.618Z,101896.23
2024-05-09T07:38:15.224Z,101896.26
2024-05-09T07:40:43.672Z,101894.29
2024-05-09T07:43:13.107Z,101891.13
2024-05-09T07:45:50.757Z,101891.10
2024-05-09T07:52:38.736Z,101889.58
2024-05-09T07:53:48.335Z,101888.34
2024-05-09T07:56:22.574Z,101887.98
2024-05-09T07:58:55.833Z,101886.31
2024-05-09T08:01:27.500Z,101892.08
2024-05-09T08:03:56.496Z,101891.55
2024-05-09T08:06:26.111Z,101893.17
2024-05-09T08:08:54.428Z,101892.55
2024-05-09T08:11:23.654Z,101897.66
2024-05-09T08:13:51.882Z,101891.66
2024-05-09T08:16:20.445Z,101890.28
2024-05-09T08:18:50.312Z,101888.05
2024-05-09T08:21:19.327Z,101889.70
2024-05-09T08:23:47.531Z,101882.13
2024-05-09T08:26:15.808Z,101889.64
2024-05-09T08:28:44.116Z,101888.21
2024-05-09T08:31:12.720Z,101886.73
2024-05-09T08:33:47.042Z,101886.50
2024-05-09T08:36:15.595Z,101886.26
2024-05-09T08:38:43.913Z,101885.19
2024-05-09T08:41:15.684Z,101881.90
2024-05-09T08:43:44.909Z,101876.42
2024-05-09T08:46:14.314Z,101877.09
2024-05-09T08:48:45.805Z,101878.52
2024-05-09T08:51:14.881Z,101880.90
2024-05-09T08:53:43.214Z,101880.65
2024-05-09T08:56:12.298Z,101878.11
2024-05-09T08:58:42.748Z,101877.77
2024-05-09T09:01:12.410Z,101876.30
2024-05-09T09:03:42.691Z,101875.05
2024-05-09T09:06:15.092Z,101877.14
2024-05-09T09:08:45.095Z,101873.54
2024-05-09T09:11:13.350Z,101874.80
2024-05-09T09:13:41.744Z,101872.66
2024-05-09T09:16:10.057Z,101868.35
2024-05-09T09:18:38.904Z,101865.16
2024-05-09T09:21:10.782Z,101867.83
2024-05-09T09:23:43.387Z,101868.02
2024-05-09T09:26:16.196Z,101869.63
2024-05-09T09:28:47.132Z,101871.11
2024-05-09T09:31:21.580Z,101864.75
2024-05-09T09:33:50.135Z,101864.06
2024-05-09T09:36:19.070Z,101859.56
2024-05-09T09:38:48.376Z,101857.62
2024-05-09T09:41:19.866Z,101851.64
2024-05-09T09:43:48.434Z,101853.52
2024-05-09T09:46:19.181Z,101850.21
2024-05-09T09:48:48.988Z,101848.14
2024-05-09T09:51:18.661Z,101845.83
2024-05-09T09:53:49.137Z,101851.45
2024-05-09T09:56:18.534Z,101848.14
2024-05-09T09:58:48.243Z,101846.63
2024-05-09T10:03:26.379Z,101843.52
2024-05-09T10:05:54.913Z,101841.55
2024-05-09T10:08:23.488Z,101839.80
2024-05-09T10:10:51.028Z,101840.08
2024-05-09T10:13:19.354Z,101832.33
2024-05-09T10:15:50.932Z,101833.20
2024-05-09T10:18:23.881Z,101831.47
2024-05-09T10:20:52.792Z,101833.16
2024-05-09T10:23:26.725Z,101827.50
2024-05-09T10:26:05.903Z,101822.02
2024-05-09T10:28:36.460Z,101821.27
2024-05-09T10:31:21.918Z,101820.92
2024-05-09T10:33:52.479Z,101816.00
2024-05-09T10:36:22.362Z,101819.79
2024-05-09T10:38:51.279Z,101819.16
2024-05-09T10:41:20.359Z,101821.76
2024-05-09T10:43:48.450Z,101819.65
2024-05-09T10:46:16.167Z,101818.04
2024-05-09T10:48:44.846Z,101813.66
2024-05-09T10:51:13.879Z,101814.51
2024-05-09T10:53:46.387Z,101812.09
2024-05-09T10:56:14.457Z,101809.36
2024-05-09T10:58:41.955Z,101808.26
2024-05-09T11:01:10.488Z,101807.66
2024-05-09T11:03:39.102Z,101807.71
2024-05-09T11:06:10.470Z,101804.85
2024-05-09T11:08:39.064Z,101805.36
2024-05-09T11:11:10.218Z,101800.27
2024-05-09T11:13:38.615Z,101803.08
2024-05-09T11:16:18.993Z,101801.11
2024-05-09T11:18:55.559Z,101801.98
2024-05-09T11:21:23.960Z,101800.66
2024-05-09T11:23:51.492Z,101797.63
2024-05-09T11:26:21.369Z,101793.61
2024-05-09T11:28:49.820Z,101791.23
2024-05-09T11:31:17.316Z,101790.82
2024-05-09T11:33:45.159Z,101788.55
2024-05-09T11:36:13.132Z,101786.95
2024-05-09T11:38:40.776Z,101789.01
2024-05-09T11:41:08.011Z,101786.38
2024-05-09T11:43:35.360Z,101785.06
2024-05-09T11:46:03.231Z,101778.11
2024-05-09T11:48:31.533Z,101773.77
2024-05-09T11:50:59.110Z,101772.42
2024-05-09T11:53:26.303Z,101768.90
2024-05-09T11:55:53.707Z,101774.77
2024-05-09T11:58:22.078Z,101771.90
2024-05-09T12:00:49.667Z,101772.37
2024-05-09T12:03:17.029Z,101773.11
2024-05-09T12:05:44.914Z,101775.27
2024-05-09T12:08:13.044Z,101771.87
2024-05-09T12:10:40.442Z,101772.42
2024-05-09T12:13:08.083Z,101767.20
2024-05-09T12:15:37.821Z,101764.79
2024-05-09T12:18:09.213Z,101760.33
2024-05-09T12:20:39.322Z,101758.45
2024-05-09T12:23:09.468Z,101753.71
2024-05-09T12:25:38.594Z,101749.89
2024-05-09T12:28:09.557Z,101746.86
2024-05-09T12:30:41.380Z,101737.89
2024-05-09T12:33:12.198Z,101740.97
2024-05-09T12:35:43.225Z,101738.50
2024-05-09T12:38:17.954Z,101733.70
2024-05-09T12:40:45.317Z,101729.46
2024-05-09T12:43:15.399Z,101722.39
2024-05-09T12:45:42.946Z,101720.70
2024-05-09T12:48:10.660Z,101718.23
2024-05-09T12:50:38.697Z,101713.74
2024-05-09T12:53:08.670Z,101713.21
2024-05-09T12:55:45.186Z,101715.24
2024-05-09T12:58:21.399Z,101714.59
2024-05-09T13:00:48.840Z,101711.30
2024-05-09T13:03:16.649Z,101714.36
2024-05-09T13:05:45.264Z,101714.27
2024-05-09T13:08:13.646Z,101717.23
2024-05-09T13:10:41.784Z,101715.91
2024-05-09T13:13:10.263Z,101714.93
2024-05-09T13:15:37.948Z,101716.79
2024-05-09T13:18:06.275Z,101718.39
2024-05-09T13:20:36.419Z,101712.51
2024-05-09T13:23:06.469Z,101706.85
2024-05-09T13:25:36.311Z,101705.55
2024-05-09T13:28:05.136Z,101701.73
2024-05-09T13:30:40.066Z,101698.91
2024-05-09T13:33:11.571Z,101696.73
2024-05-09T13:35:45.578Z,101691.15
2024-05-09T13:38:17.403Z,101688.02
2024-05-09T13:40:45.147Z,101683.70
2024-05-09T13:43:13.503Z,101679.73
2024-05-09T13:45:40.940Z,101680.31
2024-05-09T13:48:09.392Z,101679.29
2024-05-09T13:50:37.316Z,101679.94
2024-05-09T13:53:06.849Z,101681.05
2024-05-09T13:55:39.565Z,101675.77
2024-05-09T13:58:07.793Z,101669.75
2024-05-09T14:00:44.772Z,101667.02
2024-05-09T14:03:19.438Z,101665.29
2024-05-09T14:05:50.139Z,101662.31
2024-05-09T14:08:20.991Z,101658.84
2024-05-09T14:10:48.547Z,101658.04
2024-05-09T14:13:16.306Z,101659.52
2024-05-09T14:15:45.134Z,101656.25
2024-05-09T14:18:14.087Z,101655.83
2024-05-09T14:20:42.844Z,101652.25
2024-05-09T14:23:10.395Z,101649.04
2024-05-09T14:25:41.775Z,101651.17
2024-05-09T14:28:11.097Z,101648.58
2024-05-09T14:30:39.310Z,101649.41
2024-05-09T14:33:08.757Z,101650.16
2024-05-09T14:35:37.804Z,101648.34
2024-05-09T14:38:07.940Z,101646.89
2024-05-09T14:40:41.672Z,101646.60
2024-05-09T14:43:12.732Z,101646.35
2024-05-09T14:45:41.894Z,101642.20
2024-05-09T14:48:10.681Z,101644.23
2024-05-09T14:50:40.129Z,101643.35
2024-05-09T14:53:09.491Z,101638.08
2024-05-09T14:55:42.624Z,101640.15
2024-05-09T14:58:12.063Z,101638.23
2024-05-09T15:00:45.683Z,101637.72
2024-05-09T15:03:18.080Z,101639.30
2024-05-09T15:05:46.903Z,101638.80
2024-05-09T15:08:17.157Z,101637.89
2024-05-09T15:10:44.621Z,101635.05
2024-05-09T15:13:14.336Z,101635.88
2024-05-09T15:15:43.639Z,101634.23
2024-05-09T15:18:10.877Z,101628.73
2024-05-09T15:20:39.763Z,101630.05
2024-05-09T15:23:07.547Z,101632.38
2024-05-09T15:25:36.499Z,101632.98
2024-05-09T15:28:06.595Z,101635.33
2024-05-09T15:30:34.957Z,101635.15
2024-05-09T15:33:02.777Z,101629.66
2024-05-09T15:35:30.032Z,101627.98
2024-05-09T15:37:57.239Z,101625.96
2024-05-09T15:40:34.393Z,101625.84
2024-05-09T15:43:06.816Z,101621.98
2024-05-09T15:45:34.886Z,101623.61
2024-05-09T15:48:03.551Z,101621.33
2024-05-09T15:50:37.734Z,101624.43
2024-05-09T15:53:09.715Z,101623.32
2024-05-09T15:55:38.453Z,101617.13
2024-05-09T15:58:07.050Z,101623.63
2024-05-09T16:00:39.276Z,101625.48
2024-05-09T16:03:10.634Z,101624.70
2024-05-09T16:05:38.735Z,101631.03
2024-05-09T16:08:07.746Z,101633.87
2024-05-09T16:10:41.353Z,101632.44
2024-05-09T16:13:10.579Z,101629.65
2024-05-09T16:15:38.052Z,101629.34
2024-05-09T16:18:06.145Z,101631.09
2024-05-09T16:20:39.091Z,101632.66
2024-05-09T16:23:09.682Z,101633.11
2024-05-09T16:25:37.522Z,101632.49
2024-05-09T16:28:08.851Z,101632.30
2024-05-09T16:30:39.284Z,101631.11
2024-05-09T16:33:07.366Z,101632.95
2024-05-09T16:35:35.419Z,101634.05
2024-05-09T16:38:03.169Z,101636.58
2024-05-09T16:40:37.422Z,101635.19
2024-05-09T16:43:09.741Z,101636.23
2024-05-09T16:45:39.656Z,101640.19
2024-05-09T16:48:07.844Z,101636.94
2024-05-09T16:50:36.365Z,101640.93
2024-05-09T16:53:05.865Z,101646.91
2024-05-09T16:55:34.979Z,101647.74
2024-05-09T16:58:07.536Z,101644.39
2024-05-09T17:00:40.780Z,101649.45
2024-05-09T17:03:14.541Z,101649.58
2024-05-09T17:06:22.296Z,101651.81
2024-05-09T17:08:50.739Z,101654.95
2024-05-09T17:11:19.288Z,101658.75
2024-05-09T17:13:48.445Z,101660.95
2024-05-09T17:19:04.648Z,101663.45
2024-05-09T17:21:33.502Z,101664.80
2024-05-09T17:24:01.758Z,101667.65
2024-05-09T17:26:32.372Z,101668.50
2024-05-09T17:29:00.923Z,101671.96
2024-05-09T17:31:29.287Z,101674.21
2024-05-09T17:33:58.578Z,101673.38
2024-05-09T17:36:28.432Z,101672.91
2024-05-09T17:38:57.474Z,101676.34
2024-05-09T17:41:26.747Z,101676.22
2024-05-09T17:43:55.057Z,101676.44
2024-05-09T17:46:23.709Z,101679.59
2024-05-09T17:48:52.168Z,101681.86
2024-05-09T17:51:23.613Z,101692.20
2024-05-09T17:53:55.686Z,101683.27
2024-05-09T17:56:26.311Z,101690.98
2024-05-09T17:58:54.872Z,101695.23
2024-05-09T18:01:24.166Z,101698.58
2024-05-09T18:03:52.935Z,101699.27
2024-05-09T18:06:21.604Z,101697.52
2024-05-09T18:08:51.006Z,101698.38
2024-05-09T18:11:23.126Z,101701.84
2024-05-09T18:13:54.334Z,101703.20
2024-05-09T18:16:23.602Z,101705.06
2024-05-09T18:18:58.093Z,101705.34
2024-05-09T18:21:27.203Z,101711.39
2024-05-09T18:24:00.156Z,101713.77
2024-05-09T18:26:29.306Z,101718.44
2024-05-09T18:28:57.936Z,101719.24
2024-05-09T18:31:26.346Z,101722.65
2024-05-09T18:33:55.237Z,101727.13
2024-05-09T18:36:24.160Z,101733.88
2024-05-09T18:38:52.704Z,101735.69
2024-05-09T18:41:22.135Z,101739.27
2024-05-09T18:43:51.494Z,101739.81
2024-05-09T18:46:20.056Z,101739.15
2024-05-09T18:48:48.826Z,101741.47
2024-05-09T18:51:19.367Z,101745.52
2024-05-09T18:53:47.869Z,101746.95
2024-05-09T18:56:16.166Z,101750.84
2024-05-09T18:58:47.222Z,101751.58
2024-05-09T19:01:19.098Z,101760.39
2024-05-09T19:03:51.469Z,101761.84
2024-05-09T19:06:23.900Z,101762.07
2024-05-09T19:08:53.080Z,101765.27
2024-05-09T19:11:21.559Z,101765.48
2024-05-09T19:13:50.004Z,101771.10
2024-05-09T19:16:18.836Z,101774.09
2024-05-09T19:18:51.447Z,101776.21
2024-05-09T19:21:19.965Z,101782.70
2024-05-09T19:23:52.340Z,101784.29
2024-05-09T19:26:24.318Z,101784.66
2024-05-09T19:28:52.850Z,101794.11
2024-05-09T19:31:21.122Z,101797.98
2024-05-09T19:33:49.593Z,101794.31
2024-05-09T19:36:19.545Z,101797.81
2024-05-09T19:38:48.787Z,101802.70
2024-05-09T19:41:17.860Z,101808.48
2024-05-09T19:43:47.611Z,101813.72
2024-05-09T19:46:17.468Z,101814.94
2024-05-09T19:48:46.171Z,101817.73
2024-05-09T19:51:14.853Z,101820.01
2024-05-09T19:53:46.809Z,101818.43
2024-05-09T19:56:15.073Z,101818.59
2024-05-09T19:58:44.100Z,101822.80
2024-05-09T20:01:12.479Z,101821.23
2024-05-09T20:03:40.898Z,101820.85
2024-05-09T20:06:09.270Z,101816.81
2024-05-09T20:08:38.046Z,101814.88
2024-05-09T20:11:06.383Z,101812.97
2024-05-09T20:13:34.735Z,101817.50
2024-05-09T20:16:03.027Z,101822.91
2024-05-09T20:18:31.598Z,101823.25
2024-05-09T20:21:01.085Z,101823.59
2024-05-09T20:23:30.538Z,101820.26
2024-05-09T20:25:59.978Z,101816.77
2024-05-09T20:28:29.818Z,101819.73
2024-05-09T20:30:58.279Z,101823.75
2024-05-09T20:33:28.254Z,101824.60
2024-05-09T20:36:00.523Z,101822.67
2024-05-09T20:38:30.029Z,101821.79
2024-05-09T20:40:58.357Z,101825.95
2024-05-09T20:43:26.795Z,101825.23
2024-05-09T20:45:55.254Z,101822.92
2024-05-09T20:48:24.694Z,101827.98
2024-05-09T20:50:53.216Z,101826.05
2024-05-09T20:53:21.497Z,101830.21
2024-05-09T20:55:49.715Z,101828.27
2024-05-09T20:58:17.969Z,101823.88
2024-05-09T21:00:46.712Z,101823.70
2024-05-09T21:03:17.040Z,101828.38
2024-05-09T21:05:48.251Z,101824.50
2024-05-09T21:08:17.182Z,101827.08
2024-05-09T21:10:45.607Z,101830.34
2024-05-09T21:13:14.197Z,101828.55
2024-05-09T21:15:42.541Z,101828.34
2024-05-09T21:18:10.857Z,101826.23
2024-05-09T21:20:39.177Z,101827.27
2024-05-09T21:23:07.828Z,101827.95
2024-05-09T21:25:36.215Z,101827.57
2024-05-09T21:28:04.858Z,101827.71
2024-05-09T21:30:41.019Z,101828.74
2024-05-09T21:33:13.666Z,101832.20
2024-05-09T21:35:44.537Z,101834.09
2024-05-09T21:38:14.766Z,101837.67
2024-05-09T21:40:45.222Z,101840.26
2024-05-09T21:43:14.409Z,101838.64
2024-05-09T21:45:43.437Z,101843.98
2024-05-09T21:48:13.167Z,101844.81
2024-05-09T21:50:42.544Z,101843.39
2024-05-09T21:53:12.734Z,101847.36
2024-05-09T21:55:47.247Z,101851.31
2024-05-09T22:02:12.478Z,101849.87
2024-05-09T22:04:41.902Z,101854.71
2024-05-09T22:07:10.335Z,101852.42
2024-05-09T22:09:41.014Z,101852.39
2024-05-09T22:12:09.516Z,101855.16
2024-05-09T22:14:37.967Z,101856.17
2024-05-09T22:17:06.572Z,101857.70
2024-05-09T22:19:34.979Z,101854.36
2024-05-09T22:22:03.701Z,101852.94
2024-05-09T22:24:32.224Z,101852.02
2024-05-09T22:27:00.660Z,101853.75
2024-05-09T22:29:29.011Z,101855.66
2024-05-09T22:31:57.279Z,101858.60
2024-05-09T22:34:25.762Z,101858.56
2024-05-09T22:36:54.087Z,101861.63
2024-05-09T22:39:23.400Z,101860.52
2024-05-09T22:41:51.690Z,101861.47
2024-05-09T22:44:20.014Z,101858.41
2024-05-09T22:46:48.187Z,101855.88
2024-05-09T22:49:16.528Z,101854.90
2024-05-09T22:51:44.821Z,101857.75
2024-05-09T22:54:13.445Z,101856.30
2024-05-09T22:56:43.030Z,101857.66
2024-05-09T22:59:11.286Z,101860.40
2024-05-09T23:01:39.801Z,101864.17
2024-05-09T23:04:08.251Z,101863.60
2024-05-09T23:06:40.871Z,101862.33
2024-05-09T23:09:10.715Z,101863.33
2024-05-09T23:11:45.003Z,101861.35
2024-05-09T23:14:13.367Z,101861.11
2024-05-09T23:16:42.503Z,101865.27
2024-05-09T23:19:10.835Z,101865.73
2024-05-09T23:21:40.711Z,101869.70
2024-05-09T23:24:08.963Z,101868.65
2024-05-09T23:26:42.247Z,101867.39
2024-05-09T23:29:10.685Z,101867.70
2024-05-09T23:31:40.535Z,101867.84
2024-05-09T23:34:08.810Z,101867.45
2024-05-09T23:36:38.435Z,101868.80
2024-05-09T23:39:06.734Z,101873.79
2024-05-09T23:41:34.941Z,101874.26
2024-05-09T23:44:03.311Z,101872.08
2024-05-09T23:46:31.579Z,101874.95
2024-05-09T23:49:00.320Z,101872.14
2024-05-09T23:51:28.493Z,101872.41
2024-05-09T23:53:56.809Z,101872.70
2024-05-09T23:56:25.065Z,101874.54
2024-05-09T23:58:53.310Z,101873.06
